sensor_id;sensor_type;location;lat;lon;timestamp;pressure;altitude;pressure_sealevel;temperature;humidity
58991;BME280;44781;53.444;14.476;2023-05-09T00:01:45;102551.58;;;10.89;46.82
58991;BME280;44781;53.444;14.476;2023-05-09T00:04:12;102549.35;;;10.88;46.97
58991;BME280;44781;53.444;14.476;2023-05-09T00:06:39;102547.34;;;10.85;46.97
58991;BME280;44781;53.444;14.476;2023-05-09T00:09:06;102549.59;;;10.82;46.97
58991;BME280;44781;53.444;14.476;2023-05-09T00:11:33;102548.98;;;10.81;47.04
58991;BME280;44781;53.444;14.476;2023-05-09T00:14:00;102550.71;;;10.78;47.13
58991;BME280;44781;53.444;14.476;2023-05-09T00:16:28;102547.09;;;10.76;47.30
58991;BME280;44781;53.444;14.476;2023-05-09T00:18:54;102544.39;;;10.73;47.49
58991;BME280;44781;53.444;14.476;2023-05-09T00:21:23;102538.02;;;10.70;47.35
58991;BME280;44781;53.444;14.476;2023-05-09T00:23:50;102535.31;;;10.67;47.50
58991;BME280;44781;53.444;14.476;2023-05-09T00:26:20;102537.41;;;10.64;47.43
58991;BME280;44781;53.444;14.476;2023-05-09T00:28:48;102536.46;;;10.62;47.51
58991;BME280;44781;53.444;14.476;2023-05-09T00:31:15;102539.44;;;10.59;47.67
58991;BME280;44781;53.444;14.476;2023-05-09T00:33:42;102536.21;;;10.56;47.81
58991;BME280;44781;53.444;14.476;2023-05-09T00:36:09;102537.39;;;10.53;47.79
58991;BME280;44781;53.444;14.476;2023-05-09T00:38:36;102533.64;;;10.51;47.99
58991;BME280;44781;53.444;14.476;2023-05-09T00:41:03;102531.32;;;10.47;47.86
58991;BME280;44781;53.444;14.476;2023-05-09T00:43:31;102527.92;;;10.44;48.00
58991;BME280;44781;53.444;14.476;2023-05-09T00:45:58;102526.48;;;10.41;48.18
58991;BME280;44781;53.444;14.476;2023-05-09T00:48:25;102524.34;;;10.38;48.10
58991;BME280;44781;53.444;14.476;2023-05-09T00:50:51;102519.89;;;10.35;48.36
58991;BME280;44781;53.444;14.476;2023-05-09T00:53:19;102515.09;;;10.32;48.32
58991;BME280;44781;53.444;14.476;2023-05-09T00:55:46;102514.31;;;10.29;48.20
58991;BME280;44781;53.444;14.476;2023-05-09T00:58:13;102512.85;;;10.26;48.44
58991;BME280;44781;53.444;14.476;2023-05-09T01:00:40;102507.89;;;10.22;48.64
58991;BME280;44781;53.444;14.476;2023-05-09T01:03:07;102509.45;;;10.19;48.73
58991;BME280;44781;53.444;14.476;2023-05-09T01:05:46;102507.11;;;10.17;48.93
58991;BME280;44781;53.444;14.476;2023-05-09T01:08:33;102508.34;;;10.13;48.86
58991;BME280;44781;53.444;14.476;2023-05-09T01:11:16;102511.16;;;10.09;48.92
58991;BME280;44781;53.444;14.476;2023-05-09T01:13:58;102513.95;;;10.06;48.98
58991;BME280;44781;53.444;14.476;2023-05-09T01:22:11;102516.77;;;9.95;49.43
58991;BME280;44781;53.444;14.476;2023-05-09T01:27:47;102517.77;;;9.88;49.30
58991;BME280;44781;53.444;14.476;2023-05-09T01:30:17;102519.00;;;9.84;49.61
58991;BME280;44781;53.444;14.476;2023-05-09T01:32:50;102522.30;;;9.81;49.58
58991;BME280;44781;53.444;14.476;2023-05-09T01:35:43;102521.05;;;9.78;49.76
58991;BME280;44781;53.444;14.476;2023-05-09T01:38:16;102514.81;;;9.75;49.75
58991;BME280;44781;53.444;14.476;2023-05-09T01:40:45;102520.94;;;9.73;49.87
58991;BME280;44781;53.444;14.476;2023-05-09T01:43:15;102518.21;;;9.70;49.97
58991;BME280;44781;53.444;14.476;2023-05-09T01:45:44;102515.20;;;9.67;50.02
58991;BME280;44781;53.444;14.476;2023-05-09T01:48:12;102510.74;;;9.63;50.03
58991;BME280;44781;53.444;14.476;2023-05-09T01:50:42;102513.33;;;9.60;50.08
58991;BME280;44781;53.444;14.476;2023-05-09T01:53:10;102511.18;;;9.57;50.30
58991;BME280;44781;53.444;14.476;2023-05-09T01:55:39;102508.34;;;9.54;50.28
58991;BME280;44781;53.444;14.476;2023-05-09T01:58:07;102510.06;;;9.51;50.39
58991;BME280;44781;53.444;14.476;2023-05-09T02:00:35;102512.68;;;9.47;50.42
58991;BME280;44781;53.444;14.476;2023-05-09T02:03:03;102504.74;;;9.44;50.36
58991;BME280;44781;53.444;14.476;2023-05-09T02:05:30;102506.26;;;9.41;50.72
58991;BME280;44781;53.444;14.476;2023-05-09T02:07:58;102503.61;;;9.37;50.81
58991;BME280;44781;53.444;14.476;2023-05-09T02:10:28;102500.04;;;9.34;50.87
58991;BME280;44781;53.444;14.476;2023-05-09T02:12:57;102498.39;;;9.31;51.08
58991;BME280;44781;53.444;14.476;2023-05-09T02:15:24;102499.23;;;9.28;51.22
58991;BME280;44781;53.444;14.476;2023-05-09T02:17:52;102498.48;;;9.25;51.09
58991;BME280;44781;53.444;14.476;2023-05-09T02:20:18;102496.31;;;9.22;51.21
58991;BME280;44781;53.444;14.476;2023-05-09T02:22:46;102494.00;;;9.19;51.43
58991;BME280;44781;53.444;14.476;2023-05-09T02:25:13;102493.23;;;9.16;51.51
58991;BME280;44781;53.444;14.476;2023-05-09T02:27:42;102499.12;;;9.14;51.40
58991;BME280;44781;53.444;14.476;2023-05-09T02:30:17;102496.91;;;9.12;51.34
58991;BME280;44781;53.444;14.476;2023-05-09T02:32:49;102498.23;;;9.10;51.56
58991;BME280;44781;53.444;14.476;2023-05-09T02:35:20;102499.90;;;9.08;51.66
58991;BME280;44781;53.444;14.476;2023-05-09T02:37:48;102497.66;;;9.07;51.66
58991;BME280;44781;53.444;14.476;2023-05-09T02:40:15;102497.56;;;9.05;51.53
58991;BME280;44781;53.444;14.476;2023-05-09T02:42:43;102500.61;;;9.03;51.66
58991;BME280;44781;53.444;14.476;2023-05-09T02:45:10;102501.96;;;9.01;51.78
58991;BME280;44781;53.444;14.476;2023-05-09T02:47:37;102504.52;;;8.99;51.77
58991;BME280;44781;53.444;14.476;2023-05-09T02:50:05;102504.11;;;8.96;51.81
58991;BME280;44781;53.444;14.476;2023-05-09T02:52:33;102504.92;;;8.94;51.66
58991;BME280;44781;53.444;14.476;2023-05-09T02:55:00;102504.11;;;8.91;51.96
58991;BME280;44781;53.444;14.476;2023-05-09T02:57:27;102501.92;;;8.89;51.87
58991;BME280;44781;53.444;14.476;2023-05-09T02:59:54;102499.91;;;8.86;51.88
58991;BME280;44781;53.444;14.476;2023-05-09T03:02:22;102494.54;;;8.84;51.86
58991;BME280;44781;53.444;14.476;2023-05-09T03:04:49;102492.16;;;8.82;51.97
58991;BME280;44781;53.444;14.476;2023-05-09T03:07:16;102492.09;;;8.79;52.06
58991;BME280;44781;53.444;14.476;2023-05-09T03:09:43;102489.73;;;8.77;51.96
58991;BME280;44781;53.444;14.476;2023-05-09T03:12:11;102491.25;;;8.75;51.99
58991;BME280;44781;53.444;14.476;2023-05-09T03:14:37;102491.02;;;8.71;51.98
58991;BME280;44781;53.444;14.476;2023-05-09T03:17:04;102486.55;;;8.68;52.10
58991;BME280;44781;53.444;14.476;2023-05-09T03:19:34;102486.48;;;8.65;52.28
58991;BME280;44781;53.444;14.476;2023-05-09T03:22:01;102480.77;;;8.63;52.22
58991;BME280;44781;53.444;14.476;2023-05-09T03:24:29;102475.40;;;8.61;52.30
58991;BME280;44781;53.444;14.476;2023-05-09T03:26:56;102475.52;;;8.58;52.41
58991;BME280;44781;53.444;14.476;2023-05-09T03:29:23;102477.73;;;8.56;52.43
58991;BME280;44781;53.444;14.476;2023-05-09T03:31:51;102476.77;;;8.53;52.47
58991;BME280;44781;53.444;14.476;2023-05-09T03:34:18;102478.29;;;8.50;52.58
58991;BME280;44781;53.444;14.476;2023-05-09T03:36:45;102480.15;;;8.48;52.76
58991;BME280;44781;53.444;14.476;2023-05-09T03:39:13;102480.77;;;8.46;52.63
58991;BME280;44781;53.444;14.476;2023-05-09T03:41:42;102486.48;;;8.44;52.60
58991;BME280;44781;53.444;14.476;2023-05-09T03:44:10;102487.60;;;8.42;52.65
58991;BME280;44781;53.444;14.476;2023-05-09T03:46:37;102488.14;;;8.41;52.74
58991;BME280;44781;53.444;14.476;2023-05-09T03:49:05;102483.45;;;8.39;52.79
58991;BME280;44781;53.444;14.476;2023-05-09T03:51:32;102487.75;;;8.37;52.75
58991;BME280;44781;53.444;14.476;2023-05-09T03:54:00;102482.73;;;8.35;52.95
58991;BME280;44781;53.444;14.476;2023-05-09T03:56:27;102483.29;;;8.34;52.98
58991;BME280;44781;53.444;14.476;2023-05-09T03:58:54;102482.25;;;8.34;52.99
58991;BME280;44781;53.444;14.476;2023-05-09T04:01:22;102485.24;;;8.34;52.93
58991;BME280;44781;53.444;14.476;2023-05-09T04:03:48;102488.62;;;8.33;53.06
58991;BME280;44781;53.444;14.476;2023-05-09T04:06:20;102486.18;;;8.32;53.05
58991;BME280;44781;53.444;14.476;2023-05-09T04:08:46;102484.11;;;8.32;52.98
58991;BME280;44781;53.444;14.476;2023-05-09T04:11:13;102481.13;;;8.31;53.10
58991;BME280;44781;53.444;14.476;2023-05-09T04:13:42;102481.08;;;8.32;53.24
58991;BME280;44781;53.444;14.476;2023-05-09T04:16:24;102482.63;;;8.33;53.25
58991;BME280;44781;53.444;14.476;2023-05-09T04:18:50;102481.90;;;8.34;53.39
58991;BME280;44781;53.444;14.476;2023-05-09T04:21:17;102480.45;;;8.35;53.16
58991;BME280;44781;53.444;14.476;2023-05-09T04:23:47;102484.57;;;8.38;53.21
58991;BME280;44781;53.444;14.476;2023-05-09T04:26:14;102488.55;;;8.40;53.07
58991;BME280;44781;53.444;14.476;2023-05-09T04:28:45;102492.73;;;8.41;53.31
58991;BME280;44781;53.444;14.476;2023-05-09T04:31:12;102490.03;;;8.43;53.41
58991;BME280;44781;53.444;14.476;2023-05-09T04:33:41;102489.21;;;8.46;53.38
58991;BME280;44781;53.444;14.476;2023-05-09T04:36:09;102495.64;;;8.48;53.21
58991;BME280;44781;53.444;14.476;2023-05-09T04:38:36;102497.30;;;8.51;53.18
58991;BME280;44781;53.444;14.476;2023-05-09T04:41:06;102499.13;;;8.54;53.32
58991;BME280;44781;53.444;14.476;2023-05-09T04:43:33;102499.03;;;8.56;53.45
58991;BME280;44781;53.444;14.476;2023-05-09T04:45:59;102500.30;;;8.59;53.35
58991;BME280;44781;53.444;14.476;2023-05-09T04:48:27;102499.85;;;8.62;53.36
58991;BME280;44781;53.444;14.476;2023-05-09T04:50:54;102499.20;;;8.64;53.25
58991;BME280;44781;53.444;14.476;2023-05-09T04:53:21;102499.42;;;8.68;53.24
58991;BME280;44781;53.444;14.476;2023-05-09T04:55:48;102502.27;;;8.72;53.42
58991;BME280;44781;53.444;14.476;2023-05-09T04:58:15;102503.20;;;8.76;53.34
58991;BME280;44781;53.444;14.476;2023-05-09T05:00:42;102488.94;;;8.70;53.33
58991;BME280;44781;53.444;14.476;2023-05-09T05:03:10;102487.55;;;8.74;53.37
58991;BME280;44781;53.444;14.476;2023-05-09T05:05:37;102501.34;;;8.86;53.32
58991;BME280;44781;53.444;14.476;2023-05-09T05:08:06;102503.28;;;8.90;53.19
58991;BME280;44781;53.444;14.476;2023-05-09T05:10:35;102505.94;;;8.94;52.98
58991;BME280;44781;53.444;14.476;2023-05-09T05:13:06;102506.85;;;8.98;53.09
58991;BME280;44781;53.444;14.476;2023-05-09T05:15:35;102505.81;;;9.02;53.06
58991;BME280;44781;53.444;14.476;2023-05-09T05:18:02;102506.34;;;9.06;53.02
58991;BME280;44781;53.444;14.476;2023-05-09T05:20:33;102503.54;;;9.10;53.20
58991;BME280;44781;53.444;14.476;2023-05-09T05:23:00;102503.02;;;9.14;53.26
58991;BME280;44781;53.444;14.476;2023-05-09T05:25:27;102501.09;;;9.18;53.21
58991;BME280;44781;53.444;14.476;2023-05-09T05:27:55;102498.27;;;9.22;53.16
58991;BME280;44781;53.444;14.476;2023-05-09T05:30:22;102499.52;;;9.25;53.04
58991;BME280;44781;53.444;14.476;2023-05-09T05:32:49;102498.47;;;9.29;52.93
58991;BME280;44781;53.444;14.476;2023-05-09T05:35:17;102494.73;;;9.34;52.77
58991;BME280;44781;53.444;14.476;2023-05-09T05:37:45;102489.80;;;9.38;52.45
58991;BME280;44781;53.444;14.476;2023-05-09T05:40:12;102487.14;;;9.43;52.45
58991;BME280;44781;53.444;14.476;2023-05-09T05:42:40;102485.20;;;9.46;52.25
58991;BME280;44781;53.444;14.476;2023-05-09T05:45:08;102483.43;;;9.51;52.23
58991;BME280;44781;53.444;14.476;2023-05-09T05:47:37;102481.49;;;9.55;52.12
58991;BME280;44781;53.444;14.476;2023-05-09T05:50:05;102482.75;;;9.58;52.10
58991;BME280;44781;53.444;14.476;2023-05-09T05:52:34;102479.36;;;9.63;52.18
58991;BME280;44781;53.444;14.476;2023-05-09T05:55:02;102476.36;;;9.67;52.14
58991;BME280;44781;53.444;14.476;2023-05-09T05:57:29;102475.05;;;9.72;51.96
58991;BME280;44781;53.444;14.476;2023-05-09T05:59:56;102474.45;;;9.78;51.88
58991;BME280;44781;53.444;14.476;2023-05-09T06:02:24;102471.52;;;9.84;51.90
58991;BME280;44781;53.444;14.476;2023-05-09T06:04:51;102472.64;;;9.91;51.72
58991;BME280;44781;53.444;14.476;2023-05-09T06:07:18;102469.73;;;9.96;51.64
58991;BME280;44781;53.444;14.476;2023-05-09T06:09:45;102472.81;;;10.02;51.52
58991;BME280;44781;53.444;14.476;2023-05-09T06:12:12;102473.55;;;10.09;51.64
58991;BME280;44781;53.444;14.476;2023-05-09T06:14:42;102471.21;;;10.14;51.43
58991;BME280;44781;53.444;14.476;2023-05-09T06:17:09;102477.67;;;10.19;51.31
58991;BME280;44781;53.444;14.476;2023-05-09T06:19:36;102472.89;;;10.23;51.12
58991;BME280;44781;53.444;14.476;2023-05-09T06:22:03;102471.78;;;10.28;51.01
58991;BME280;44781;53.444;14.476;2023-05-09T06:24:30;102471.81;;;10.32;50.83
58991;BME280;44781;53.444;14.476;2023-05-09T06:26:57;102470.88;;;10.36;50.99
58991;BME280;44781;53.444;14.476;2023-05-09T06:29:24;102468.39;;;10.40;50.85
58991;BME280;44781;53.444;14.476;2023-05-09T06:31:51;102467.48;;;10.45;50.72
58991;BME280;44781;53.444;14.476;2023-05-09T06:34:18;102465.48;;;10.50;50.77
58991;BME280;44781;53.444;14.476;2023-05-09T06:36:45;102457.49;;;10.54;50.73
58991;BME280;44781;53.444;14.476;2023-05-09T06:39:12;102450.36;;;10.59;50.60
58991;BME280;44781;53.444;14.476;2023-05-09T06:41:39;102451.88;;;10.64;50.50
58991;BME280;44781;53.444;14.476;2023-05-09T06:44:06;102450.95;;;10.69;50.40
58991;BME280;44781;53.444;14.476;2023-05-09T06:46:33;102447.48;;;10.74;50.39
58991;BME280;44781;53.444;14.476;2023-05-09T06:49:00;102442.14;;;10.79;50.13
58991;BME280;44781;53.444;14.476;2023-05-09T06:51:28;102440.85;;;10.83;50.13
58991;BME280;44781;53.444;14.476;2023-05-09T06:53:55;102438.82;;;10.88;50.04
58991;BME280;44781;53.444;14.476;2023-05-09T06:56:23;102437.72;;;10.93;49.93
58991;BME280;44781;53.444;14.476;2023-05-09T06:58:54;102435.70;;;10.97;49.63
58991;BME280;44781;53.444;14.476;2023-05-09T07:01:21;102435.20;;;11.03;49.75
58991;BME280;44781;53.444;14.476;2023-05-09T07:03:48;102436.06;;;11.08;49.58
58991;BME280;44781;53.444;14.476;2023-05-09T07:06:14;102436.67;;;11.13;49.36
58991;BME280;44781;53.444;14.476;2023-05-09T07:08:42;102432.20;;;11.18;49.17
58991;BME280;44781;53.444;14.476;2023-05-09T07:11:11;102429.76;;;11.23;49.08
58991;BME280;44781;53.444;14.476;2023-05-09T07:13:38;102427.90;;;11.29;49.00
58991;BME280;44781;53.444;14.476;2023-05-09T07:16:05;102427.40;;;11.35;49.08
58991;BME280;44781;53.444;14.476;2023-05-09T07:18:32;102425.16;;;11.40;48.76
58991;BME280;44781;53.444;14.476;2023-05-09T07:20:59;102423.45;;;11.45;48.30
58991;BME280;44781;53.444;14.476;2023-05-09T07:23:26;102420.33;;;11.51;48.10
58991;BME280;44781;53.444;14.476;2023-05-09T07:25:57;102408.49;;;11.57;47.98
58991;BME280;44781;53.444;14.476;2023-05-09T07:28:24;102400.22;;;11.63;48.10
58991;BME280;44781;53.444;14.476;2023-05-09T07:30:54;102393.33;;;11.70;47.99
58991;BME280;44781;53.444;14.476;2023-05-09T07:33:22;102394.73;;;11.76;47.67
58991;BME280;44781;53.444;14.476;2023-05-09T07:35:49;102390.29;;;11.83;47.76
58991;BME280;44781;53.444;14.476;2023-05-09T07:38:43;102389.36;;;11.90;47.50
58991;BME280;44781;53.444;14.476;2023-05-09T07:41:37;102382.18;;;11.99;47.12
58991;BME280;44781;53.444;14.476;2023-05-09T07:44:13;102373.58;;;12.07;46.79
58991;BME280;44781;53.444;14.476;2023-05-09T07:46:40;102370.34;;;12.14;46.59
58991;BME280;44781;53.444;14.476;2023-05-09T07:49:07;102363.95;;;12.20;46.61
58991;BME280;44781;53.444;14.476;2023-05-09T07:51:34;102358.05;;;12.27;46.52
58991;BME280;44781;53.444;14.476;2023-05-09T07:54:02;102357.27;;;12.35;46.53
58991;BME280;44781;53.444;14.476;2023-05-09T07:56:29;102352.54;;;12.43;46.17
58991;BME280;44781;53.444;14.476;2023-05-09T07:58:56;102346.46;;;12.50;45.73
58991;BME280;44781;53.444;14.476;2023-05-09T08:01:23;102332.25;;;12.56;45.44
58991;BME280;44781;53.444;14.476;2023-05-09T08:03:50;102327.36;;;12.64;45.59
58991;BME280;44781;53.444;14.476;2023-05-09T08:06:17;102324.27;;;12.72;45.27
58991;BME280;44781;53.444;14.476;2023-05-09T08:08:47;102323.48;;;12.78;44.88
58991;BME280;44781;53.444;14.476;2023-05-09T08:11:14;102312.04;;;12.86;44.71
58991;BME280;44781;53.444;14.476;2023-05-09T08:13:41;102316.70;;;12.94;44.48
58991;BME280;44781;53.444;14.476;2023-05-09T08:16:08;102317.58;;;13.03;43.83
58991;BME280;44781;53.444;14.476;2023-05-09T08:18:35;102307.05;;;13.09;43.03
58991;BME280;44781;53.444;14.476;2023-05-09T08:21:02;102301.15;;;13.16;42.69
58991;BME280;44781;53.444;14.476;2023-05-09T08:23:29;102291.64;;;13.23;42.62
58991;BME280;44781;53.444;14.476;2023-05-09T08:25:56;102285.54;;;13.30;42.31
58991;BME280;44781;53.444;14.476;2023-05-09T08:28:24;102279.55;;;13.38;42.02
58991;BME280;44781;53.444;14.476;2023-05-09T08:30:54;102274.33;;;13.45;41.70
58991;BME280;44781;53.444;14.476;2023-05-09T08:33:25;102273.88;;;13.52;41.17
58991;BME280;44781;53.444;14.476;2023-05-09T08:35:53;102277.00;;;13.58;40.96
58991;BME280;44781;53.444;14.476;2023-05-09T08:38:20;102267.89;;;13.65;40.91
58991;BME280;44781;53.444;14.476;2023-05-09T08:40:48;102265.34;;;13.71;40.88
58991;BME280;44781;53.444;14.476;2023-05-09T08:43:15;102264.08;;;13.77;40.65
58991;BME280;44781;53.444;14.476;2023-05-09T08:45:46;102261.60;;;13.82;40.60
58991;BME280;44781;53.444;14.476;2023-05-09T08:48:17;102262.50;;;13.87;40.68
58991;BME280;44781;53.444;14.476;2023-05-09T08:50:44;102261.20;;;13.94;40.82
58991;BME280;44781;53.444;14.476;2023-05-09T08:53:22;102254.86;;;14.01;40.56
58991;BME280;44781;53.444;14.476;2023-05-09T08:55:50;102258.87;;;14.07;40.32
58991;BME280;44781;53.444;14.476;2023-05-09T08:58:18;102254.80;;;14.12;40.29
58991;BME280;44781;53.444;14.476;2023-05-09T09:00:48;102249.10;;;14.17;40.17
58991;BME280;44781;53.444;14.476;2023-05-09T09:03:28;102239.86;;;14.23;40.06
58991;BME280;44781;53.444;14.476;2023-05-09T09:05:56;102237.88;;;14.29;40.09
58991;BME280;44781;53.444;14.476;2023-05-09T09:08:25;102232.50;;;14.34;40.33
58991;BME280;44781;53.444;14.476;2023-05-09T09:10:53;102227.65;;;14.40;40.18
58991;BME280;44781;53.444;14.476;2023-05-09T09:13:20;102217.30;;;14.46;40.09
58991;BME280;44781;53.444;14.476;2023-05-09T09:15:49;102206.19;;;14.52;40.06
58991;BME280;44781;53.444;14.476;2023-05-09T09:18:23;102205.91;;;14.60;39.77
58991;BME280;44781;53.444;14.476;2023-05-09T09:21:00;102204.18;;;14.67;39.71
58991;BME280;44781;53.444;14.476;2023-05-09T09:23:31;102205.08;;;14.74;39.61
58991;BME280;44781;53.444;14.476;2023-05-09T09:26:01;102199.20;;;14.82;39.11
58991;BME280;44781;53.444;14.476;2023-05-09T09:28:29;102194.01;;;14.90;39.07
58991;BME280;44781;53.444;14.476;2023-05-09T09:30:56;102197.32;;;14.98;39.17
58991;BME280;44781;53.444;14.476;2023-05-09T09:33:25;102197.40;;;15.07;38.92
58991;BME280;44781;53.444;14.476;2023-05-09T09:35:55;102194.23;;;15.16;39.11
58991;BME280;44781;53.444;14.476;2023-05-09T09:38:23;102199.39;;;15.26;38.79
58991;BME280;44781;53.444;14.476;2023-05-09T09:43:17;102188.80;;;15.44;38.27
58991;BME280;44781;53.444;14.476;2023-05-09T09:45:48;102188.77;;;15.51;38.02
58991;BME280;44781;53.444;14.476;2023-05-09T09:48:16;102191.14;;;15.60;37.98
58991;BME280;44781;53.444;14.476;2023-05-09T09:50:46;102184.67;;;15.68;37.83
58991;BME280;44781;53.444;14.476;2023-05-09T09:53:13;102185.14;;;15.77;37.72
58991;BME280;44781;53.444;14.476;2023-05-09T09:55:49;102184.06;;;15.84;37.15
58991;BME280;44781;53.444;14.476;2023-05-09T09:58:17;102174.08;;;15.91;36.89
58991;BME280;44781;53.444;14.476;2023-05-09T10:00:44;102168.82;;;15.97;36.87
58991;BME280;44781;53.444;14.476;2023-05-09T10:03:15;102163.38;;;16.03;36.77
58991;BME280;44781;53.444;14.476;2023-05-09T10:05:42;102161.38;;;16.10;37.06
58991;BME280;44781;53.444;14.476;2023-05-09T10:08:09;102158.17;;;16.17;36.71
58991;BME280;44781;53.444;14.476;2023-05-09T10:10:37;102154.95;;;16.24;36.50
58991;BME280;44781;53.444;14.476;2023-05-09T10:13:09;102153.85;;;16.32;36.13
58991;BME280;44781;53.444;14.476;2023-05-09T10:15:38;102151.90;;;16.38;35.98
58991;BME280;44781;53.444;14.476;2023-05-09T10:18:09;102140.17;;;16.44;35.85
58991;BME280;44781;53.444;14.476;2023-05-09T10:20:37;102132.57;;;16.48;35.85
58991;BME280;44781;53.444;14.476;2023-05-09T10:23:08;102133.33;;;16.59;35.60
58991;BME280;44781;53.444;14.476;2023-05-09T10:25:47;102129.13;;;16.65;35.45
58991;BME280;44781;53.444;14.476;2023-05-09T10:28:30;102116.48;;;16.64;35.21
58991;BME280;44781;53.444;14.476;2023-05-09T10:31:24;102123.95;;;16.78;35.15
58991;BME280;44781;53.444;14.476;2023-05-09T10:34:10;102122.02;;;16.84;35.03
58991;BME280;44781;53.444;14.476;2023-05-09T10:36:56;102116.83;;;16.93;34.79
58991;BME280;44781;53.444;14.476;2023-05-09T10:39:31;102111.09;;;17.00;34.82
58991;BME280;44781;53.444;14.476;2023-05-09T10:41:58;102105.39;;;17.07;34.61
58991;BME280;44781;53.444;14.476;2023-05-09T10:44:26;102098.54;;;17.12;34.52
58991;BME280;44781;53.444;14.476;2023-05-09T10:47:09;102100.88;;;17.18;34.46
58991;BME280;44781;53.444;14.476;2023-05-09T10:49:46;102098.91;;;17.25;34.48
58991;BME280;44781;53.444;14.476;2023-05-09T10:52:14;102091.60;;;17.31;34.54
58991;BME280;44781;53.444;14.476;2023-05-09T10:54:57;102083.77;;;17.37;34.26
58991;BME280;44781;53.444;14.476;2023-05-09T10:57:25;102084.21;;;17.45;34.44
58991;BME280;44781;53.444;14.476;2023-05-09T11:00:01;102081.80;;;17.52;34.29
58991;BME280;44781;53.444;14.476;2023-05-09T11:02:28;102079.27;;;17.59;33.83
58991;BME280;44781;53.444;14.476;2023-05-09T11:05:16;102074.15;;;17.66;33.67
58991;BME280;44781;53.444;14.476;2023-05-09T11:10:52;102064.68;;;17.83;33.45
58991;BME280;44781;53.444;14.476;2023-05-09T11:13:21;102063.80;;;17.91;33.28
58991;BME280;44781;53.444;14.476;2023-05-09T11:18:27;102063.73;;;18.05;33.13
58991;BME280;44781;53.444;14.476;2023-05-09T11:20:55;102059.52;;;18.10;33.18
58991;BME280;44781;53.444;14.476;2023-05-09T11:23:28;102046.23;;;18.15;33.01
58991;BME280;44781;53.444;14.476;2023-05-09T11:26:06;102042.61;;;18.19;32.98
58991;BME280;44781;53.444;14.476;2023-05-09T11:28:35;102035.48;;;18.25;33.46
58991;BME280;44781;53.444;14.476;2023-05-09T11:31:15;102035.06;;;18.32;33.40
58991;BME280;44781;53.444;14.476;2023-05-09T11:33:45;102034.01;;;18.40;33.57
58991;BME280;44781;53.444;14.476;2023-05-09T11:36:29;102031.77;;;18.47;33.26
58991;BME280;44781;53.444;14.476;2023-05-09T11:39:02;102028.16;;;18.55;33.07
58991;BME280;44781;53.444;14.476;2023-05-09T11:41:37;102025.83;;;18.63;33.20
58991;BME280;44781;53.444;14.476;2023-05-09T11:44:42;102025.02;;;18.72;33.57
58991;BME280;44781;53.444;14.476;2023-05-09T11:47:40;102021.98;;;18.84;33.23
58991;BME280;44781;53.444;14.476;2023-05-09T11:50:10;102024.15;;;18.94;32.80
58991;BME280;44781;53.444;14.476;2023-05-09T11:53:13;102018.50;;;19.05;32.56
58991;BME280;44781;53.444;14.476;2023-05-09T11:56:43;102012.38;;;19.16;32.31
58991;BME280;44781;53.444;14.476;2023-05-09T11:59:27;102008.68;;;19.29;32.12
58991;BME280;44781;53.444;14.476;2023-05-09T12:02:04;102002.55;;;19.39;31.79
58991;BME280;44781;53.444;14.476;2023-05-09T12:04:34;101992.87;;;19.49;31.78
58991;BME280;44781;53.444;14.476;2023-05-09T12:07:10;101985.29;;;19.57;31.66
58991;BME280;44781;53.444;14.476;2023-05-09T12:09:48;101981.78;;;19.63;31.42
58991;BME280;44781;53.444;14.476;2023-05-09T12:12:26;101980.22;;;19.71;31.43
58991;BME280;44781;53.444;14.476;2023-05-09T12:14:53;101976.33;;;19.76;31.09
58991;BME280;44781;53.444;14.476;2023-05-09T12:17:36;101972.98;;;19.81;30.77
58991;BME280;44781;53.444;14.476;2023-05-09T12:20:03;101963.30;;;19.87;30.89
58991;BME280;44781;53.444;14.476;2023-05-09T12:22:41;101965.44;;;19.93;30.94
58991;BME280;44781;53.444;14.476;2023-05-09T12:25:15;101953.84;;;19.95;31.43
58991;BME280;44781;53.444;14.476;2023-05-09T12:27:54;101960.44;;;20.09;31.21
58991;BME280;44781;53.444;14.476;2023-05-09T12:30:26;101952.80;;;20.17;30.69
58991;BME280;44781;53.444;14.476;2023-05-09T12:33:00;101943.88;;;20.26;30.54
58991;BME280;44781;53.444;14.476;2023-05-09T12:35:30;101939.80;;;20.34;30.40
58991;BME280;44781;53.444;14.476;2023-05-09T12:38:34;101935.95;;;20.42;30.49
58991;BME280;44781;53.444;14.476;2023-05-09T12:41:09;101928.98;;;20.53;30.44
58991;BME280;44781;53.444;14.476;2023-05-09T12:43:57;101920.91;;;20.62;30.28
58991;BME280;44781;53.444;14.476;2023-05-09T12:46:27;101909.29;;;20.61;30.16
58991;BME280;44781;53.444;14.476;2023-05-09T12:49:00;101919.65;;;20.76;30.16
58991;BME280;44781;53.444;14.476;2023-05-09T12:51:48;101913.85;;;20.86;30.24
58991;BME280;44781;53.444;14.476;2023-05-09T12:54:20;101906.97;;;20.97;30.35
58991;BME280;44781;53.444;14.476;2023-05-09T12:56:48;101900.65;;;21.06;29.95
58991;BME280;44781;53.444;14.476;2023-05-09T12:59:36;101894.22;;;21.15;29.99
58991;BME280;44781;53.444;14.476;2023-05-09T13:02:06;101898.14;;;21.23;29.58
58991;BME280;44781;53.444;14.476;2023-05-09T13:04:33;101902.27;;;21.31;29.37
58991;BME280;44781;53.444;14.476;2023-05-09T13:07:00;101898.19;;;21.37;29.18
58991;BME280;44781;53.444;14.476;2023-05-09T13:09:27;101888.05;;;21.41;29.04
58991;BME280;44781;53.444;14.476;2023-05-09T13:11:55;101887.95;;;21.46;28.90
58991;BME280;44781;53.444;14.476;2023-05-09T13:14:25;101875.82;;;21.50;28.68
58991;BME280;44781;53.444;14.476;2023-05-09T13:17:00;101876.20;;;21.57;28.78